Time;durP1;ratioP1;P1;durP2;ratioP2;P2;SDS_P1;SDS_P2;PMS_P1;PMS_P2;Temp;Humidity;BMP_temperature;BMP_pressure;BME280_temperature;BME280_humidity;BME280_pressure;Samples;Min_cycle;Max_cycle;Signal;HPM_P1;HPM_P2
2022/05/17 00:02:20;;;;;;;17.92;6.70;;;14.50;99.90;;;;;;4975641;28;20601;-68
2022/05/17 00:04:46;;;;;;;20.27;6.95;;;14.50;99.90;;;;;;4964896;28;20049;-69
2022/05/17 00:07:12;;;;;;;25.42;6.95;;;14.40;99.90;;;;;;5013122;28;20042;-71
2022/05/17 00:09:37;;;;;;;31.52;7.35;;;14.40;99.90;;;;;;5003894;28;20072;-69
2022/05/17 00:12:04;;;;;;;19.25;6.00;;;14.40;99.90;;;;;;4977433;28;20042;-69
2022/05/17 00:14:31;;;;;;;24.65;7.47;;;14.40;99.90;;;;;;5007152;28;20038;-69
2022/05/17 00:16:57;;;;;;;22.85;6.63;;;14.30;99.90;;;;;;4978906;28;20077;-69
2022/05/17 00:19:24;;;;;;;18.58;6.10;;;14.30;99.90;;;;;;4975498;28;20050;-68
2022/05/17 00:21:51;;;;;;;27.05;7.30;;;14.20;99.90;;;;;;4974259;28;20470;-68
2022/05/17 00:24:18;;;;;;;26.88;7.20;;;14.30;99.90;;;;;;4976345;28;20120;-68
2022/05/17 00:26:44;;;;;;;23.92;6.95;;;14.20;99.90;;;;;;4986345;28;20058;-68
2022/05/17 00:29:11;;;;;;;25.23;7.20;;;14.20;99.90;;;;;;4960899;28;20365;-68
2022/05/17 00:31:37;;;;;;;26.88;7.05;;;14.20;99.90;;;;;;4978506;28;20038;-68
2022/05/17 00:34:03;;;;;;;19.80;6.60;;;14.20;99.90;;;;;;4978819;28;20043;-68
2022/05/17 00:36:31;;;;;;;21.40;6.97;;;14.20;99.90;;;;;;4978770;28;20073;-68
2022/05/17 00:38:56;;;;;;;25.48;7.00;;;14.20;99.90;;;;;;4976385;28;20046;-68
2022/05/17 00:41:22;;;;;;;29.10;8.10;;;14.10;99.90;;;;;;4979618;28;20053;-68
2022/05/17 00:46:47;;;;;;;26.15;7.60;;;14.10;99.90;;;;;;5004134;28;20484;-68
2022/05/17 00:49:21;;;;;;;22.42;7.10;;;14.00;99.90;;;;;;4968560;28;20113;-68
2022/05/17 00:51:47;;;;;;;25.80;7.65;;;14.00;99.90;;;;;;5009191;28;20096;-68
2022/05/17 00:54:17;;;;;;;24.33;7.97;;;14.00;99.90;;;;;;4953146;28;20046;-68
2022/05/17 00:56:57;;;;;;;25.23;7.25;;;14.00;99.90;;;;;;4974919;28;20065;-69
2022/05/17 00:59:23;;;;;;;25.65;8.40;;;14.00;99.90;;;;;;4974249;28;20057;-68
2022/05/17 01:01:50;;;;;;;25.35;8.18;;;14.00;99.90;;;;;;5005908;28;20057;-68
2022/05/17 01:04:23;;;;;;;27.10;7.25;;;14.00;99.90;;;;;;4973382;28;20136;-68
2022/05/17 01:07:05;;;;;;;28.40;7.85;;;13.90;99.90;;;;;;4959364;28;20054;-69
2022/05/17 01:09:32;;;;;;;26.60;7.72;;;13.90;99.90;;;;;;5006425;28;20137;-68
2022/05/17 01:11:57;;;;;;;25.83;8.25;;;13.90;99.90;;;;;;4974449;28;20650;-68
2022/05/17 01:17:08;;;;;;;29.92;8.82;;;13.80;99.90;;;;;;5008721;28;20053;-68
2022/05/17 01:19:37;;;;;;;23.83;8.23;;;13.90;99.90;;;;;;4972671;28;20474;-68
2022/05/17 01:22:03;;;;;;;23.70;7.82;;;13.80;99.90;;;;;;4970776;28;20396;-68
2022/05/17 01:24:29;;;;;;;27.63;8.48;;;13.80;99.90;;;;;;4978735;28;20061;-68
2022/05/17 01:27:29;;;;;;;25.08;8.38;;;13.80;99.90;;;;;;5007792;28;20714;-68
2022/05/17 01:29:55;;;;;;;25.10;7.68;;;13.80;99.90;;;;;;5003963;28;20050;-68
2022/05/17 01:32:22;;;;;;;26.80;8.30;;;13.80;99.90;;;;;;4985785;28;20305;-68
2022/05/17 01:34:48;;;;;;;26.90;8.35;;;13.70;99.90;;;;;;4983394;28;20557;-68
2022/05/17 01:37:15;;;;;;;24.75;8.82;;;13.80;99.90;;;;;;4979758;28;20369;-68
2022/05/17 01:39:42;;;;;;;27.95;8.85;;;13.70;99.90;;;;;;4986785;28;20050;-68
2022/05/17 01:42:10;;;;;;;32.25;9.63;;;13.70;99.90;;;;;;4977489;28;20061;-68
2022/05/17 01:44:37;;;;;;;27.23;9.20;;;13.70;99.90;;;;;;4987903;28;20602;-68
2022/05/17 01:47:03;;;;;;;25.65;8.43;;;13.60;99.90;;;;;;4991179;28;20042;-68
2022/05/17 01:49:29;;;;;;;26.10;8.10;;;13.70;99.90;;;;;;4989877;28;20443;-68
2022/05/17 01:51:55;;;;;;;22.58;8.50;;;13.60;99.90;;;;;;4998680;28;20181;-68
2022/05/17 01:54:21;;;;;;;22.80;8.18;;;13.70;99.90;;;;;;5014146;28;20042;-68
2022/05/17 01:56:47;;;;;;;21.67;7.72;;;13.60;99.90;;;;;;4983699;28;20047;-68
2022/05/17 01:59:12;;;;;;;26.45;8.73;;;13.60;99.90;;;;;;4997303;28;20121;-68
2022/05/17 02:01:39;;;;;;;24.05;7.97;;;13.60;99.90;;;;;;4988964;28;20671;-68
2022/05/17 02:04:05;;;;;;;24.35;7.85;;;13.60;99.90;;;;;;4988292;28;20073;-68
2022/05/17 02:06:31;;;;;;;25.70;8.70;;;13.60;99.90;;;;;;5019160;28;20508;-67
2022/05/17 02:08:56;;;;;;;20.48;7.65;;;13.50;99.90;;;;;;4986356;28;20058;-67
2022/05/17 02:11:22;;;;;;;23.48;8.23;;;13.50;99.90;;;;;;4989463;28;20196;-68
2022/05/17 02:13:48;;;;;;;24.85;8.85;;;13.70;99.90;;;;;;4971763;28;20499;-68
2022/05/17 02:16:13;;;;;;;22.05;8.48;;;13.50;99.90;;;;;;4987090;28;20046;-68
2022/05/17 02:18:39;;;;;;;23.80;7.88;;;13.50;99.90;;;;;;4964075;28;20058;-68
2022/05/17 02:21:05;;;;;;;23.90;7.35;;;13.40;99.90;;;;;;4981669;28;20498;-68
2022/05/17 02:23:31;;;;;;;19.35;7.70;;;13.50;99.90;;;;;;4968804;28;20489;-68
2022/05/17 02:25:56;;;;;;;23.75;8.55;;;13.40;99.90;;;;;;5008262;28;20050;-68
2022/05/17 02:28:22;;;;;;;21.77;7.78;;;13.40;99.90;;;;;;4989116;28;20494;-69
2022/05/17 02:30:49;;;;;;;26.85;8.23;;;13.50;99.90;;;;;;4985841;28;20057;-69
2022/05/17 02:33:16;;;;;;;24.67;7.82;;;13.30;99.90;;;;;;4988030;28;20042;-69
2022/05/17 02:35:43;;;;;;;22.23;8.05;;;13.30;99.90;;;;;;4987462;28;20145;-68
2022/05/17 02:38:09;;;;;;;18.92;7.28;;;13.30;99.90;;;;;;5003021;28;20384;-69
2022/05/17 02:40:36;;;;;;;22.98;7.60;;;13.30;99.90;;;;;;4988425;28;20077;-68
2022/05/17 02:43:03;;;;;;;23.05;7.20;;;13.30;99.90;;;;;;4996180;28;20038;-68
2022/05/17 02:45:29;;;;;;;16.13;7.03;;;13.30;99.90;;;;;;4986802;28;20503;-68
2022/05/17 02:47:55;;;;;;;23.10;7.47;;;13.20;99.90;;;;;;4987131;28;20507;-68
2022/05/17 02:50:21;;;;;;;23.05;7.22;;;13.30;99.90;;;;;;4988644;28;20389;-68
2022/05/17 02:52:47;;;;;;;23.20;7.38;;;13.20;99.90;;;;;;4976727;28;20042;-68
2022/05/17 02:55:13;;;;;;;25.75;7.53;;;13.40;99.90;;;;;;4976468;28;20051;-68
2022/05/17 02:57:39;;;;;;;20.10;8.02;;;13.20;99.90;;;;;;5009302;28;20455;-68
2022/05/17 03:00:10;;;;;;;20.30;7.47;;;13.20;99.90;;;;;;4986931;28;20048;-68
2022/05/17 03:02:36;;;;;;;18.35;7.20;;;13.20;99.90;;;;;;4988177;28;20046;-68
2022/05/17 03:05:01;;;;;;;23.48;7.70;;;13.20;99.90;;;;;;5000229;28;20466;-69
2022/05/17 03:07:27;;;;;;;21.17;7.80;;;13.20;99.90;;;;;;4981770;28;20376;-68
2022/05/17 03:09:53;;;;;;;23.38;7.68;;;13.20;99.90;;;;;;4977268;28;20551;-68
2022/05/17 03:12:18;;;;;;;20.25;7.45;;;13.20;99.90;;;;;;4969060;28;20181;-68
2022/05/17 03:14:44;;;;;;;19.33;7.25;;;13.20;99.90;;;;;;4988284;28;20098;-68
2022/05/17 03:17:12;;;;;;;23.83;7.95;;;13.20;99.90;;;;;;4988180;28;20503;-68
2022/05/17 03:19:39;;;;;;;23.90;7.13;;;13.20;99.90;;;;;;4998564;28;20498;-68
2022/05/17 03:22:05;;;;;;;23.40;7.40;;;13.20;99.90;;;;;;4990920;28;20050;-68
2022/05/17 03:24:31;;;;;;;15.95;6.82;;;13.20;99.90;;;;;;4992654;28;20042;-68
2022/05/17 03:26:58;;;;;;;21.10;7.20;;;13.20;99.90;;;;;;4991405;28;20046;-68
2022/05/17 03:29:24;;;;;;;21.30;7.30;;;13.20;99.90;;;;;;4991629;28;20057;-68
2022/05/17 03:31:50;;;;;;;18.52;6.85;;;13.20;99.90;;;;;;5005590;28;20478;-68
2022/05/17 03:34:17;;;;;;;21.92;7.78;;;13.20;99.90;;;;;;4974878;28;20046;-68
2022/05/17 03:36:43;;;;;;;19.67;7.05;;;13.20;99.90;;;;;;4989210;28;20590;-68
2022/05/17 03:39:09;;;;;;;19.55;7.20;;;13.20;99.90;;;;;;4973440;28;20045;-68
2022/05/17 03:41:34;;;;;;;20.35;7.28;;;13.20;99.90;;;;;;5003593;28;20050;-68
2022/05/17 03:44:00;;;;;;;23.40;7.90;;;13.20;99.90;;;;;;5007611;28;20376;-68
2022/05/17 03:46:26;;;;;;;26.45;7.78;;;13.10;99.90;;;;;;4980320;28;20508;-68
2022/05/17 03:48:51;;;;;;;20.70;7.70;;;13.20;99.90;;;;;;5015866;28;20517;-68
2022/05/17 03:51:19;;;;;;;21.70;7.53;;;13.20;99.90;;;;;;4983738;28;20046;-68
2022/05/17 03:53:45;;;;;;;25.70;7.45;;;13.20;99.90;;;;;;4984916;28;20613;-68
2022/05/17 03:56:12;;;;;;;21.95;7.45;;;13.30;99.90;;;;;;4988605;28;20100;-68
2022/05/17 03:58:38;;;;;;;17.83;7.07;;;13.30;99.90;;;;;;4995781;28;20072;-69
2022/05/17 04:01:05;;;;;;;24.58;7.63;;;13.30;99.90;;;;;;4967790;28;20673;-69
2022/05/17 04:03:31;;;;;;;20.65;7.38;;;13.30;99.90;;;;;;4982456;28;20053;-69
2022/05/17 04:05:57;;;;;;;26.15;7.68;;;13.40;99.90;;;;;;4968233;28;20665;-68
2022/05/17 04:08:23;;;;;;;23.88;7.50;;;13.40;99.90;;;;;;4974907;28;20236;-68
2022/05/17 04:10:49;;;;;;;21.48;7.43;;;13.50;99.90;;;;;;4961912;28;20046;-68
2022/05/17 04:13:15;;;;;;;21.80;7.85;;;13.60;99.90;;;;;;4997361;28;20143;-69
2022/05/17 04:15:41;;;;;;;22.83;6.82;;;13.60;99.90;;;;;;4977040;28;20109;-68
2022/05/17 04:18:08;;;;;;;26.35;7.20;;;13.70;99.90;;;;;;4976473;28;20039;-69
2022/05/17 04:20:34;;;;;;;17.85;6.95;;;13.80;99.90;;;;;;5003437;28;20050;-68
2022/05/17 04:22:59;;;;;;;19.45;6.68;;;13.90;99.90;;;;;;4985002;28;20108;-69
2022/05/17 04:25:26;;;;;;;20.67;7.50;;;14.00;99.90;;;;;;4982001;28;20046;-69
2022/05/17 04:27:53;;;;;;;20.45;6.80;;;14.00;99.90;;;;;;4985488;28;20584;-69
2022/05/17 04:30:20;;;;;;;17.90;6.65;;;14.10;99.90;;;;;;5016342;28;20392;-69
2022/05/17 04:32:47;;;;;;;24.13;6.55;;;14.80;99.90;;;;;;4985635;28;20053;-68
2022/05/17 04:35:14;;;;;;;18.10;5.82;;;16.00;99.90;;;;;;4987007;28;20042;-69
2022/05/17 04:37:40;;;;;;;14.90;5.20;;;17.10;99.90;;;;;;4983679;28;20462;-69
2022/05/17 04:40:08;;;;;;;13.13;4.80;;;18.30;99.90;;;;;;4998732;28;20046;-69
2022/05/17 04:42:39;;;;;;;22.70;5.18;;;19.30;99.90;;;;;;4997394;28;20043;-69
2022/05/17 04:45:08;;;;;;;14.30;5.75;;;20.10;99.90;;;;;;4987768;28;20065;-69
2022/05/17 04:47:34;;;;;;;15.73;4.80;;;20.80;99.90;;;;;;4981783;28;20053;-69
2022/05/17 04:50:00;;;;;;;20.05;5.20;;;21.50;99.90;;;;;;4982730;28;20050;-69
2022/05/17 04:52:27;;;;;;;13.32;4.07;;;22.10;99.90;;;;;;4970692;28;20498;-69
2022/05/17 04:54:53;;;;;;;15.63;5.10;;;22.20;99.90;;;;;;4963404;28;20051;-69
2022/05/17 04:57:19;;;;;;;13.60;4.95;;;21.30;99.90;;;;;;4992850;28;20042;-69
2022/05/17 04:59:44;;;;;;;20.00;5.88;;;20.50;99.90;;;;;;4976162;28;20042;-68
2022/05/17 05:02:10;;;;;;;20.02;4.82;;;19.50;99.90;;;;;;4974719;28;20046;-69
2022/05/17 05:04:38;;;;;;;19.10;5.55;;;18.80;99.90;;;;;;4981329;28;20275;-69
2022/05/17 05:07:05;;;;;;;16.23;5.38;;;18.20;99.90;;;;;;4983638;28;20112;-69
2022/05/17 05:09:32;;;;;;;17.73;5.53;;;17.80;99.90;;;;;;4982518;28;20514;-69
2022/05/17 05:11:58;;;;;;;14.48;4.38;;;17.40;99.90;;;;;;4981598;28;20376;-69
2022/05/17 05:14:24;;;;;;;12.98;4.65;;;17.30;99.90;;;;;;4980627;28;20120;-69
2022/05/17 05:16:50;;;;;;;18.13;5.78;;;18.00;99.90;;;;;;4978977;28;20858;-69
2022/05/17 05:19:16;;;;;;;17.45;4.93;;;18.40;99.90;;;;;;4976295;28;20046;-69
2022/05/17 05:21:42;;;;;;;16.17;5.22;;;18.80;99.90;;;;;;4972267;28;20047;-69
2022/05/17 05:24:10;;;;;;;14.95;4.45;;;18.50;99.90;;;;;;4971657;28;20042;-69
2022/05/17 05:26:38;;;;;;;14.50;4.22;;;18.30;99.90;;;;;;4978916;28;20046;-69
2022/05/17 05:29:05;;;;;;;16.38;5.22;;;18.00;99.90;;;;;;4977971;28;20042;-69
2022/05/17 05:31:31;;;;;;;16.85;4.63;;;17.90;99.90;;;;;;5006686;28;20518;-69
2022/05/17 05:34:00;;;;;;;17.60;5.43;;;17.50;99.90;;;;;;4978450;28;20519;-69
2022/05/17 05:36:27;;;;;;;16.50;5.28;;;17.40;99.90;;;;;;4974422;28;20066;-69
2022/05/17 05:38:53;;;;;;;15.80;5.07;;;17.40;99.90;;;;;;4994726;28;20046;-69
2022/05/17 05:41:19;;;;;;;18.20;4.60;;;17.30;99.90;;;;;;4993772;28;20523;-69
2022/05/17 05:43:45;;;;;;;16.80;5.50;;;17.30;99.90;;;;;;4980008;28;20513;-69
2022/05/17 05:46:10;;;;;;;16.17;4.40;;;17.30;99.90;;;;;;4981869;28;20042;-69
2022/05/17 05:48:36;;;;;;;13.25;4.38;;;17.20;99.90;;;;;;4984501;28;20050;-69
2022/05/17 05:51:03;;;;;;;17.60;4.15;;;17.20;99.90;;;;;;4985546;28;20188;-69
2022/05/17 05:53:29;;;;;;;13.65;4.47;;;17.50;99.90;;;;;;4983085;28;20061;-69
2022/05/17 05:56:01;;;;;;;14.68;4.10;;;18.20;99.90;;;;;;4986280;28;20039;-68
2022/05/17 05:58:38;;;;;;;16.50;3.70;;;18.40;99.90;;;;;;4985369;28;20050;-69
2022/05/17 06:01:05;;;;;;;14.35;4.18;;;18.30;99.90;;;;;;4986950;28;20061;-69
2022/05/17 06:03:31;;;;;;;21.25;5.15;;;18.40;99.90;;;;;;4990397;28;20049;-69
2022/05/17 06:05:57;;;;;;;14.57;5.05;;;18.20;99.90;;;;;;4991319;28;20439;-69
2022/05/17 06:08:23;;;;;;;19.40;5.20;;;18.10;99.90;;;;;;4991296;28;20249;-68
2022/05/17 06:10:49;;;;;;;18.98;4.72;;;18.00;99.90;;;;;;4997427;28;20420;-69
2022/05/17 06:13:16;;;;;;;16.58;4.25;;;18.00;99.90;;;;;;4986784;28;20046;-69
2022/05/17 06:15:42;;;;;;;17.00;4.22;;;17.80;99.90;;;;;;5000733;28;20266;-69
2022/05/17 06:18:08;;;;;;;19.70;4.78;;;17.70;99.90;;;;;;4996558;28;20038;-69
2022/05/17 06:20:35;;;;;;;19.02;4.43;;;17.70;99.90;;;;;;4998997;28;20431;-69
2022/05/17 06:23:01;;;;;;;18.23;4.80;;;17.70;99.90;;;;;;5000918;28;20045;-69
2022/05/17 06:25:27;;;;;;;20.05;4.53;;;18.10;99.90;;;;;;5004930;28;20181;-69
2022/05/17 06:27:53;;;;;;;17.38;4.30;;;18.00;99.90;;;;;;4989096;28;20133;-69
2022/05/17 06:30:18;;;;;;;19.23;5.18;;;18.00;99.90;;;;;;4997804;28;20130;-69
2022/05/17 06:32:44;;;;;;;16.40;4.30;;;17.90;99.90;;;;;;4987244;28;20054;-69
2022/05/17 06:35:11;;;;;;;16.88;4.03;;;18.00;99.90;;;;;;4971908;28;20046;-69
2022/05/17 06:37:37;;;;;;;17.48;4.43;;;18.20;99.90;;;;;;4988309;28;20042;-69
2022/05/17 06:40:05;;;;;;;12.57;4.10;;;18.50;99.90;;;;;;4987342;28;20042;-69
2022/05/17 06:42:32;;;;;;;17.13;4.00;;;19.00;99.90;;;;;;4971000;28;20503;-68
2022/05/17 06:44:58;;;;;;;16.65;4.15;;;18.90;99.90;;;;;;4987251;28;20054;-69
2022/05/17 06:47:24;;;;;;;13.27;3.53;;;18.60;99.90;;;;;;4986944;28;20125;-69
2022/05/17 06:49:50;;;;;;;19.38;4.38;;;18.30;99.90;;;;;;5018757;28;20116;-69
2022/05/17 06:52:16;;;;;;;19.08;4.40;;;18.30;99.90;;;;;;4978057;28;20043;-69
2022/05/17 06:54:43;;;;;;;16.85;3.88;;;18.10;99.90;;;;;;5000343;28;20347;-69
2022/05/17 06:57:11;;;;;;;18.13;4.43;;;18.00;99.90;;;;;;4982958;28;20034;-69
2022/05/17 06:59:39;;;;;;;18.75;4.70;;;18.00;99.90;;;;;;5013421;28;20395;-69
2022/05/17 07:02:07;;;;;;;17.67;4.70;;;18.00;99.90;;;;;;4990339;28;20080;-69
2022/05/17 07:04:34;;;;;;;17.25;4.45;;;18.10;99.90;;;;;;5002827;28;20124;-69
2022/05/17 07:07:00;;;;;;;18.33;4.30;;;18.10;99.90;;;;;;4971519;28;20188;-69
2022/05/17 07:09:27;;;;;;;14.35;4.50;;;18.30;99.90;;;;;;4988702;28;20047;-69
2022/05/17 07:14:38;;;;;;;13.57;3.67;;;18.50;99.90;;;;;;4986931;28;20660;-69
2022/05/17 07:17:15;;;;;;;21.58;4.30;;;18.60;99.90;;;;;;4987961;28;20058;-69
2022/05/17 07:19:42;;;;;;;17.00;4.05;;;18.80;99.90;;;;;;4965889;28;20050;-69
2022/05/17 07:22:08;;;;;;;18.55;4.55;;;19.00;99.90;;;;;;4987232;28;20292;-69
2022/05/17 07:24:36;;;;;;;14.15;4.25;;;19.20;99.90;;;;;;4986964;28;20439;-70
2022/05/17 07:27:02;;;;;;;12.27;4.10;;;19.50;99.90;;;;;;4989001;28;20054;-69
2022/05/17 07:29:28;;;;;;;15.52;3.97;;;19.80;99.90;;;;;;4985823;28;20049;-69
2022/05/17 07:31:54;;;;;;;17.95;4.70;;;20.40;99.90;;;;;;4983828;28;20054;-70
2022/05/17 07:34:21;;;;;;;15.80;4.43;;;21.30;99.90;;;;;;4986034;28;20070;-70
2022/05/17 07:36:47;;;;;;;14.18;4.15;;;21.50;99.90;;;;;;5003408;28;20053;-69
2022/05/17 07:39:13;;;;;;;13.80;4.45;;;21.70;99.90;;;;;;4986287;28;20519;-69
2022/05/17 07:41:41;;;;;;;14.45;4.35;;;21.70;99.90;;;;;;4982626;28;20051;-69
2022/05/17 07:44:07;;;;;;;18.00;4.25;;;21.90;99.90;;;;;;4969117;28;20054;-69
2022/05/17 07:46:33;;;;;;;15.60;3.83;;;22.00;99.90;;;;;;4987684;28;20065;-69
2022/05/17 07:48:59;;;;;;;14.52;3.92;;;22.40;99.90;;;;;;4988272;28;20039;-69
2022/05/17 07:51:24;;;;;;;19.45;4.15;;;22.70;99.90;;;;;;4987589;28;20384;-69
2022/05/17 07:53:51;;;;;;;16.88;4.10;;;22.80;99.90;;;;;;4986936;28;20054;-69
2022/05/17 07:56:17;;;;;;;12.40;3.72;;;22.80;99.90;;;;;;4987678;28;20038;-69
2022/05/17 07:58:43;;;;;;;15.90;3.80;;;22.90;99.90;;;;;;4971166;28;20050;-69
2022/05/17 08:01:09;;;;;;;15.15;3.95;;;23.10;99.90;;;;;;4967878;28;20145;-69
2022/05/17 08:03:35;;;;;;;14.02;3.53;;;23.20;99.90;;;;;;4984172;28;20046;-69
2022/05/17 08:06:01;;;;;;;13.98;3.63;;;23.20;99.90;;;;;;4991746;28;20038;-69
2022/05/17 08:08:26;;;;;;;11.32;3.10;;;23.10;99.90;;;;;;4991332;28;20081;-68
2022/05/17 08:10:53;;;;;;;16.45;4.20;;;23.10;99.90;;;;;;4974096;28;20400;-70
2022/05/17 08:13:21;;;;;;;15.88;4.13;;;23.20;99.90;;;;;;5022346;28;20101;-69
2022/05/17 08:15:48;;;;;;;15.88;4.90;;;23.30;99.90;;;;;;5022629;28;20046;-69
2022/05/17 08:18:15;;;;;;;14.70;4.05;;;23.50;99.90;;;;;;4989933;28;20093;-69
2022/05/17 08:20:41;;;;;;;14.63;4.20;;;23.60;99.90;;;;;;4990394;28;20137;-69
2022/05/17 08:23:07;;;;;;;12.68;3.75;;;23.70;99.90;;;;;;4990715;28;20042;-69
2022/05/17 08:28:18;;;;;;;12.93;3.70;;;23.80;99.90;;;;;;4990642;28;20043;-69
2022/05/17 08:30:45;;;;;;;18.88;4.95;;;24.00;99.90;;;;;;4990342;28;20471;-68
2022/05/17 08:33:17;;;;;;;12.80;3.63;;;24.10;99.90;;;;;;5023340;28;20141;-67
2022/05/17 08:35:55;;;;;;;13.15;3.78;;;24.30;99.90;;;;;;4991098;28;20057;-67
2022/05/17 08:38:22;;;;;;;14.02;4.28;;;24.30;99.90;;;;;;4990103;28;20053;-67
2022/05/17 08:41:07;;;;;;;16.88;3.92;;;24.40;99.90;;;;;;4990929;28;20419;-67
2022/05/17 08:43:41;;;;;;;16.58;4.20;;;24.50;99.90;;;;;;4964463;28;20400;-67
2022/05/17 08:46:25;;;;;;;12.70;3.95;;;24.80;99.90;;;;;;4996452;28;20041;-68
2022/05/17 08:49:12;;;;;;;15.18;4.20;;;25.10;99.90;;;;;;5003298;28;20141;-68
2022/05/17 08:51:47;;;;;;;16.85;4.80;;;25.30;99.90;;;;;;5007208;28;20034;-68
2022/05/17 08:54:17;;;;;;;14.20;3.92;;;25.40;99.90;;;;;;4973850;28;20411;-70
2022/05/17 08:56:53;;;;;;;14.10;4.22;;;25.40;99.90;;;;;;4989647;28;20053;-69
2022/05/17 08:59:22;;;;;;;14.13;3.88;;;25.40;99.90;;;;;;5005797;28;20392;-69
2022/05/17 09:02:14;;;;;;;12.45;3.72;;;25.30;99.90;;;;;;4989958;28;20551;-69
2022/05/17 09:04:40;;;;;;;11.90;3.55;;;25.40;99.90;;;;;;4969047;28;20054;-69
2022/05/17 09:07:25;;;;;;;14.77;3.90;;;25.50;99.90;;;;;;4969861;28;20043;-69
2022/05/17 09:10:10;;;;;;;11.88;2.90;;;25.50;99.90;;;;;;5019660;28;20050;-68
2022/05/17 09:12:59;;;;;;;10.57;2.53;;;25.70;99.90;;;;;;4990243;28;20101;-69
2022/05/17 09:15:25;;;;;;;14.43;3.60;;;25.90;99.90;;;;;;5021648;28;20042;-69
2022/05/17 09:17:51;;;;;;;12.90;3.38;;;26.10;99.90;;;;;;5021964;28;20061;-68
2022/05/17 09:20:20;;;;;;;12.13;3.67;;;26.20;99.90;;;;;;4988955;28;20034;-69
2022/05/17 09:22:46;;;;;;;14.25;3.17;;;26.30;99.90;;;;;;4990211;28;20046;-69
2022/05/17 09:25:22;;;;;;;13.98;3.60;;;26.40;99.90;;;;;;4988839;28;20073;-69
2022/05/17 09:27:50;;;;;;;10.65;2.63;;;26.50;99.90;;;;;;4989914;28;20046;-68
2022/05/17 09:30:22;;;;;;;11.70;2.97;;;26.60;99.90;;;;;;4970600;28;20043;-70
2022/05/17 09:32:58;;;;;;;10.73;2.30;;;26.70;99.90;;;;;;4989157;28;20054;-69
2022/05/17 09:35:24;;;;;;;11.48;2.60;;;26.70;99.90;;;;;;4989073;28;20384;-69
2022/05/17 09:37:58;;;;;;;12.63;2.85;;;26.80;99.90;;;;;;4990194;28;20451;-69
2022/05/17 09:40:35;;;;;;;9.52;2.65;;;26.90;99.90;;;;;;4989690;28;20085;-69
2022/05/17 09:43:08;;;;;;;11.18;3.03;;;26.80;99.90;;;;;;4989185;28;20388;-69
2022/05/17 09:45:46;;;;;;;14.35;2.72;;;26.80;99.90;;;;;;4989839;28;20487;-69
2022/05/17 09:48:14;;;;;;;8.77;2.50;;;26.80;99.90;;;;;;5022398;28;20046;-69
2022/05/17 09:53:45;;;;;;;11.55;2.50;;;26.80;98.90;;;;;;4989532;28;20050;-69
2022/05/17 09:56:12;;;;;;;11.07;2.70;;;26.90;99.20;;;;;;4989006;28;20049;-69
2022/05/17 09:58:40;;;;;;;9.80;2.58;;;27.10;96.30;;;;;;4976241;28;20130;-69
2022/05/17 10:01:28;;;;;;;12.48;2.55;;;27.10;98.20;;;;;;4985399;28;20483;-68
2022/05/17 10:04:05;;;;;;;9.10;2.35;;;27.20;93.70;;;;;;5020919;28;20085;-68
2022/05/17 10:06:37;;;;;;;10.13;2.75;;;27.10;94.20;;;;;;4971681;28;20046;-69
2022/05/17 10:09:09;;;;;;;9.52;1.90;;;27.00;96.00;;;;;;4988321;28;20487;-68
2022/05/17 10:11:44;;;;;;;14.13;3.42;;;27.00;95.90;;;;;;4987701;28;20038;-68
2022/05/17 10:14:17;;;;;;;10.68;2.40;;;27.00;93.90;;;;;;4987887;28;20053;-69
2022/05/17 10:17:08;;;;;;;10.40;2.53;;;27.10;94.50;;;;;;4988971;28;20267;-70
2022/05/17 10:19:37;;;;;;;7.88;2.13;;;27.00;92.50;;;;;;4988136;28;20054;-69
2022/05/17 10:22:52;;;;;;;11.55;2.78;;;27.00;93.60;;;;;;5018885;28;20054;-68
2022/05/17 10:25:41;;;;;;;12.30;2.30;;;27.00;91.80;;;;;;4988743;28;20384;-68
2022/05/17 10:28:32;;;;;;;11.25;2.47;;;26.80;86.20;;;;;;4996894;28;20112;-68
2022/05/17 10:31:29;;;;;;;11.10;2.30;;;26.80;90.60;;;;;;4987763;28;20090;-68
2022/05/17 10:34:36;;;;;;;11.15;2.35;;;26.80;88.70;;;;;;4988384;28;20125;-67
2022/05/17 10:37:15;;;;;;;8.80;2.38;;;26.90;89.90;;;;;;4972011;28;20051;-68
2022/05/17 10:39:50;;;;;;;10.18;2.00;;;26.90;89.40;;;;;;4979070;28;20109;-67
2022/05/17 10:42:16;;;;;;;10.20;2.17;;;26.90;90.20;;;;;;4982777;28;20094;-68
2022/05/17 10:44:50;;;;;;;9.15;2.15;;;26.90;91.10;;;;;;4968153;28;20466;-68
2022/05/17 10:47:22;;;;;;;10.85;1.70;;;26.70;85.30;;;;;;4999316;28;20101;-68
2022/05/17 10:50:32;;;;;;;10.93;2.33;;;26.70;88.40;;;;;;4973876;28;20050;-69
2022/05/17 10:53:17;;;;;;;8.32;1.63;;;26.90;83.70;;;;;;4984174;28;20075;-68
2022/05/17 10:56:01;;;;;;;11.73;2.05;;;27.00;84.20;;;;;;5000528;28;20351;-68
2022/05/17 10:58:50;;;;;;;7.68;1.70;;;27.00;80.80;;;;;;4985210;28;20046;-68
2022/05/17 11:01:26;;;;;;;8.93;1.95;;;27.10;83.90;;;;;;4972650;28;20055;-68
2022/05/17 11:04:20;;;;;;;8.57;2.05;;;27.10;81.90;;;;;;4988168;28;20138;-68
2022/05/17 11:06:55;;;;;;;9.40;1.73;;;27.10;81.20;;;;;;4986763;28;20081;-68
2022/05/17 11:09:48;;;;;;;12.75;2.20;;;27.10;78.60;;;;;;5019633;28;20054;-68
2022/05/17 11:12:18;;;;;;;10.88;2.30;;;27.10;80.00;;;;;;4987650;28;20504;-68
2022/05/17 11:15:08;;;;;;;11.03;2.17;;;27.00;78.90;;;;;;5011925;28;20054;-68
2022/05/17 11:17:57;;;;;;;8.82;1.90;;;27.00;78.60;;;;;;5005617;28;20050;-69
2022/05/17 11:20:36;;;;;;;9.27;1.98;;;27.10;80.00;;;;;;4968883;28;20392;-68
2022/05/17 11:23:24;;;;;;;8.32;2.13;;;27.10;76.10;;;;;;5020506;28;20073;-68
2022/05/17 11:26:04;;;;;;;8.38;1.73;;;27.00;75.90;;;;;;4988414;28;20042;-69
2022/05/17 11:28:51;;;;;;;8.25;1.63;;;27.10;77.30;;;;;;4987432;28;20117;-69
2022/05/17 11:31:17;;;;;;;10.55;1.65;;;27.20;75.80;;;;;;4984798;28;20042;-69
2022/05/17 11:33:43;;;;;;;7.22;1.40;;;27.20;72.80;;;;;;4987375;28;20050;-70
2022/05/17 11:36:16;;;;;;;6.93;1.77;;;27.30;72.90;;;;;;5019961;28;20053;-70
2022/05/17 11:38:51;;;;;;;7.97;1.73;;;27.30;73.60;;;;;;4989119;28;20043;-70
2022/05/17 11:41:23;;;;;;;8.07;1.67;;;27.40;75.50;;;;;;5007533;28;20129;-69
2022/05/17 11:44:02;;;;;;;9.55;1.80;;;27.50;76.40;;;;;;4991117;28;20065;-69
2022/05/17 11:46:28;;;;;;;7.10;1.52;;;27.50;73.80;;;;;;4990821;28;20567;-70
2022/05/17 11:49:01;;;;;;;5.90;1.52;;;27.50;73.70;;;;;;4990795;28;20062;-70
2022/05/17 11:51:32;;;;;;;7.00;1.42;;;27.40;73.70;;;;;;4991784;28;20041;-70
2022/05/17 11:54:00;;;;;;;6.22;1.40;;;27.40;72.40;;;;;;4991650;28;20114;-69
2022/05/17 11:56:25;;;;;;;5.35;1.35;;;27.40;71.20;;;;;;5024192;28;20125;-69
2022/05/17 11:59:08;;;;;;;8.50;1.38;;;27.50;72.00;;;;;;4991702;28;20590;-69
2022/05/17 12:01:35;;;;;;;10.05;2.17;;;27.50;71.20;;;;;;4986216;28;20058;-70
2022/05/17 12:04:21;;;;;;;6.88;1.48;;;27.60;67.80;;;;;;4980480;28;20054;-69
2022/05/17 12:06:55;;;;;;;8.13;1.48;;;27.40;65.80;;;;;;5019904;28;20101;-70
2022/05/17 12:09:24;;;;;;;8.25;1.55;;;27.40;69.50;;;;;;4990541;28;20452;-69
2022/05/17 12:12:30;;;;;;;8.77;1.80;;;27.30;69.30;;;;;;4990326;28;20046;-71
2022/05/17 12:15:17;;;;;;;7.07;1.52;;;27.40;68.20;;;;;;5005825;28;20054;-70
2022/05/17 12:17:46;;;;;;;5.90;1.40;;;27.50;69.10;;;;;;4972037;28;20059;-69
2022/05/17 12:20:45;;;;;;;6.85;1.60;;;27.40;68.10;;;;;;4990834;28;20511;-70
2022/05/17 12:23:26;;;;;;;6.93;1.67;;;27.40;67.80;;;;;;4991032;28;20039;-70
2022/05/17 12:26:05;;;;;;;;;;;27.30;66.80;;;;;;4991360;28;20142;-69
2022/05/17 12:28:49;;;;;;;6.85;1.30;;;27.20;66.90;;;;;;4990235;28;19948;-69
2022/05/17 12:31:21;;;;;;;9.88;1.63;;;27.10;67.00;;;;;;4990212;28;20415;-70
2022/05/17 12:33:49;;;;;;;6.78;1.38;;;27.10;66.40;;;;;;4983283;28;20054;-69
2022/05/17 12:36:21;;;;;;;6.47;1.60;;;27.10;66.60;;;;;;4973467;28;20057;-69
2022/05/17 12:44:47;;;;;;;8.52;1.60;;;27.00;66.10;;;;;;4979996;28;20050;-69
2022/05/17 12:47:28;;;;;;;8.02;1.50;;;26.90;67.90;;;;;;5016386;28;20045;-69
2022/05/17 12:49:54;;;;;;;;;;;26.80;65.00;;;;;;4967463;28;20077;-69
2022/05/17 12:52:39;;;;;;;6.55;1.75;;;26.80;64.90;;;;;;4986493;28;20395;-69
2022/05/17 12:55:32;;;;;;;9.23;1.65;;;26.80;66.00;;;;;;4988652;28;20268;-69
2022/05/17 12:58:10;;;;;;;6.18;1.60;;;26.80;65.40;;;;;;4993592;28;20038;-70
2022/05/17 13:00:36;;;;;;;6.38;1.55;;;26.90;66.30;;;;;;5015232;28;20133;-69
2022/05/17 13:03:18;;;;;;;7.40;1.60;;;26.80;66.20;;;;;;4982689;28;20401;-69
2022/05/17 13:05:48;;;;;;;7.30;1.33;;;26.70;66.60;;;;;;4983163;28;20104;-69
2022/05/17 13:08:23;;;;;;;8.70;1.92;;;26.70;66.90;;;;;;4985912;28;20065;-67
2022/05/17 13:11:12;;;;;;;6.65;1.60;;;26.60;66.80;;;;;;4982542;28;20051;-67
2022/05/17 13:13:41;;;;;;;11.15;2.15;;;26.30;67.40;;;;;;4971398;28;20479;-67
2022/05/17 13:16:25;;;;;;;6.45;1.55;;;26.10;67.70;;;;;;4983598;28;20403;-66